sensor_id;sensor_type;location;lat;lon;timestamp;temperature;humidity
10388;DHT22;5240;51.128;4.566;2022-12-07T00:01:43;4.70;99.90
10388;DHT22;5240;51.128;4.566;2022-12-07T00:04:12;4.70;99.90
10388;DHT22;5240;51.128;4.566;2022-12-07T00:06:41;4.70;99.90
10388;DHT22;5240;51.128;4.566;2022-12-07T00:09:11;4.70;99.90
10388;DHT22;5240;51.128;4.566;2022-12-07T00:11:38;4.60;99.90
10388;DHT22;5240;51.128;4.566;2022-12-07T00:14:06;4.60;99.90
10388;DHT22;5240;51.128;4.566;2022-12-07T00:16:35;4.60;99.90
10388;DHT22;5240;51.128;4.566;2022-12-07T00:19:03;4.50;99.90
10388;DHT22;5240;51.128;4.566;2022-12-07T00:21:32;4.60;99.90
10388;DHT22;5240;51.128;4.566;2022-12-07T00:24:00;4.60;99.90
10388;DHT22;5240;51.128;4.566;2022-12-07T00:26:28;4.60;99.90
10388;DHT22;5240;51.128;4.566;2022-12-07T00:28:57;4.50;99.90
10388;DHT22;5240;51.128;4.566;2022-12-07T00:31:26;4.50;99.90
10388;DHT22;5240;51.128;4.566;2022-12-07T00:33:55;4.40;99.90
10388;DHT22;5240;51.128;4.566;2022-12-07T00:36:23;4.40;99.90
10388;DHT22;5240;51.128;4.566;2022-12-07T00:38:50;4.40;99.90
10388;DHT22;5240;51.128;4.566;2022-12-07T00:41:18;4.40;99.90
10388;DHT22;5240;51.128;4.566;2022-12-07T00:43:47;4.50;99.90
10388;DHT22;5240;51.128;4.566;2022-12-07T00:46:16;4.60;99.90
10388;DHT22;5240;51.128;4.566;2022-12-07T00:48:43;4.70;99.90
10388;DHT22;5240;51.128;4.566;2022-12-07T00:51:13;4.80;99.90
10388;DHT22;5240;51.128;4.566;2022-12-07T00:53:41;4.90;99.90
10388;DHT22;5240;51.128;4.566;2022-12-07T00:56:11;4.90;99.90
10388;DHT22;5240;51.128;4.566;2022-12-07T00:58:38;5.00;99.90
10388;DHT22;5240;51.128;4.566;2022-12-07T01:01:06;4.90;99.90
10388;DHT22;5240;51.128;4.566;2022-12-07T01:03:33;4.80;99.90
10388;DHT22;5240;51.128;4.566;2022-12-07T01:06:02;4.80;99.90
10388;DHT22;5240;51.128;4.566;2022-12-07T01:08:31;4.80;99.90
10388;DHT22;5240;51.128;4.566;2022-12-07T01:10:59;4.80;99.90
10388;DHT22;5240;51.128;4.566;2022-12-07T01:13:26;4.90;99.90
10388;DHT22;5240;51.128;4.566;2022-12-07T01:15:56;4.90;99.90
10388;DHT22;5240;51.128;4.566;2022-12-07T01:18:24;5.00;99.90
10388;DHT22;5240;51.128;4.566;2022-12-07T01:20:58;5.00;99.90
10388;DHT22;5240;51.128;4.566;2022-12-07T01:23:25;5.00;99.90
10388;DHT22;5240;51.128;4.566;2022-12-07T01:25:56;5.00;99.90
10388;DHT22;5240;51.128;4.566;2022-12-07T01:28:23;5.00;99.90
10388;DHT22;5240;51.128;4.566;2022-12-07T01:30:58;5.00;99.90
10388;DHT22;5240;51.128;4.566;2022-12-07T01:33:27;5.10;99.90
10388;DHT22;5240;51.128;4.566;2022-12-07T01:35:54;5.00;99.90
10388;DHT22;5240;51.128;4.566;2022-12-07T01:38:21;5.00;99.90
10388;DHT22;5240;51.128;4.566;2022-12-07T01:40:55;4.80;99.90
10388;DHT22;5240;51.128;4.566;2022-12-07T01:43:24;4.80;99.90
10388;DHT22;5240;51.128;4.566;2022-12-07T01:45:52;4.70;99.90
10388;DHT22;5240;51.128;4.566;2022-12-07T01:48:22;4.60;99.90
10388;DHT22;5240;51.128;4.566;2022-12-07T01:50:53;4.50;99.90
10388;DHT22;5240;51.128;4.566;2022-12-07T01:53:24;4.50;99.90
10388;DHT22;5240;51.128;4.566;2022-12-07T01:55:52;4.50;99.90
10388;DHT22;5240;51.128;4.566;2022-12-07T01:58:21;4.50;99.90
10388;DHT22;5240;51.128;4.566;2022-12-07T02:00:49;4.50;99.90
10388;DHT22;5240;51.128;4.566;2022-12-07T02:03:18;4.50;99.90
10388;DHT22;5240;51.128;4.566;2022-12-07T02:05:47;4.40;99.90
10388;DHT22;5240;51.128;4.566;2022-12-07T02:08:15;4.50;99.90
10388;DHT22;5240;51.128;4.566;2022-12-07T02:10:42;4.40;99.90
10388;DHT22;5240;51.128;4.566;2022-12-07T02:13:12;4.40;99.90
10388;DHT22;5240;51.128;4.566;2022-12-07T02:15:55;4.40;99.90
10388;DHT22;5240;51.128;4.566;2022-12-07T02:18:35;4.40;99.90
10388;DHT22;5240;51.128;4.566;2022-12-07T02:21:07;4.40;99.90
10388;DHT22;5240;51.128;4.566;2022-12-07T02:23:41;4.30;99.90
10388;DHT22;5240;51.128;4.566;2022-12-07T02:29:21;4.40;99.90
10388;DHT22;5240;51.128;4.566;2022-12-07T02:31:55;4.40;99.90
10388;DHT22;5240;51.128;4.566;2022-12-07T02:34:32;4.40;99.90
10388;DHT22;5240;51.128;4.566;2022-12-07T02:37:06;4.40;99.90
10388;DHT22;5240;51.128;4.566;2022-12-07T02:39:41;4.40;99.90
10388;DHT22;5240;51.128;4.566;2022-12-07T02:42:15;4.50;99.90
10388;DHT22;5240;51.128;4.566;2022-12-07T02:44:46;4.50;99.90
10388;DHT22;5240;51.128;4.566;2022-12-07T02:47:16;4.60;99.90
10388;DHT22;5240;51.128;4.566;2022-12-07T02:49:44;4.60;99.90
10388;DHT22;5240;51.128;4.566;2022-12-07T02:52:11;4.50;99.90
10388;DHT22;5240;51.128;4.566;2022-12-07T02:54:38;4.50;99.90
10388;DHT22;5240;51.128;4.566;2022-12-07T02:57:15;4.60;99.90
10388;DHT22;5240;51.128;4.566;2022-12-07T02:59:58;4.70;99.90
10388;DHT22;5240;51.128;4.566;2022-12-07T03:02:35;4.70;99.90
10388;DHT22;5240;51.128;4.566;2022-12-07T03:05:13;4.70;99.90
10388;DHT22;5240;51.128;4.566;2022-12-07T03:07:51;4.70;99.90
10388;DHT22;5240;51.128;4.566;2022-12-07T03:10:23;4.80;99.90
10388;DHT22;5240;51.128;4.566;2022-12-07T03:13:00;4.80;99.90
10388;DHT22;5240;51.128;4.566;2022-12-07T03:15:33;4.80;99.90
10388;DHT22;5240;51.128;4.566;2022-12-07T03:18:02;4.80;99.90
10388;DHT22;5240;51.128;4.566;2022-12-07T03:20:32;4.70;99.90
10388;DHT22;5240;51.128;4.566;2022-12-07T03:23:04;4.80;99.90
10388;DHT22;5240;51.128;4.566;2022-12-07T03:25:32;4.80;99.90
10388;DHT22;5240;51.128;4.566;2022-12-07T03:28:04;4.80;99.90
10388;DHT22;5240;51.128;4.566;2022-12-07T03:30:37;4.80;99.90
10388;DHT22;5240;51.128;4.566;2022-12-07T03:33:08;4.70;99.90
10388;DHT22;5240;51.128;4.566;2022-12-07T03:35:41;4.60;99.90
10388;DHT22;5240;51.128;4.566;2022-12-07T03:38:15;4.50;99.90
10388;DHT22;5240;51.128;4.566;2022-12-07T03:40:47;4.50;99.90
10388;DHT22;5240;51.128;4.566;2022-12-07T03:43:17;4.40;99.90
10388;DHT22;5240;51.128;4.566;2022-12-07T03:45:56;4.40;99.90
10388;DHT22;5240;51.128;4.566;2022-12-07T03:48:32;4.30;99.90
10388;DHT22;5240;51.128;4.566;2022-12-07T03:51:07;4.30;99.90
10388;DHT22;5240;51.128;4.566;2022-12-07T03:53:40;4.20;99.90
10388;DHT22;5240;51.128;4.566;2022-12-07T03:56:11;4.10;99.90
10388;DHT22;5240;51.128;4.566;2022-12-07T03:58:40;4.10;99.90
10388;DHT22;5240;51.128;4.566;2022-12-07T04:01:09;4.00;99.90
10388;DHT22;5240;51.128;4.566;2022-12-07T04:03:36;4.00;99.90
10388;DHT22;5240;51.128;4.566;2022-12-07T04:06:03;4.00;99.90
10388;DHT22;5240;51.128;4.566;2022-12-07T04:08:30;4.10;99.90
10388;DHT22;5240;51.128;4.566;2022-12-07T04:10:57;4.20;99.90
10388;DHT22;5240;51.128;4.566;2022-12-07T04:13:24;4.20;99.90
10388;DHT22;5240;51.128;4.566;2022-12-07T04:15:52;4.20;99.90
10388;DHT22;5240;51.128;4.566;2022-12-07T04:18:20;4.10;99.90
10388;DHT22;5240;51.128;4.566;2022-12-07T04:20:47;4.10;99.90
10388;DHT22;5240;51.128;4.566;2022-12-07T04:23:14;4.00;99.90
10388;DHT22;5240;51.128;4.566;2022-12-07T04:25:41;4.00;99.90
10388;DHT22;5240;51.128;4.566;2022-12-07T04:28:08;3.90;99.90
10388;DHT22;5240;51.128;4.566;2022-12-07T04:30:35;3.90;99.90
10388;DHT22;5240;51.128;4.566;2022-12-07T04:33:02;3.90;99.90
10388;DHT22;5240;51.128;4.566;2022-12-07T04:35:31;3.90;99.90
10388;DHT22;5240;51.128;4.566;2022-12-07T04:37:58;3.90;99.90
10388;DHT22;5240;51.128;4.566;2022-12-07T04:40:25;3.90;99.90
10388;DHT22;5240;51.128;4.566;2022-12-07T04:42:52;3.90;99.90
10388;DHT22;5240;51.128;4.566;2022-12-07T04:45:19;3.90;99.90
10388;DHT22;5240;51.128;4.566;2022-12-07T04:47:46;3.90;99.90
10388;DHT22;5240;51.128;4.566;2022-12-07T04:50:13;3.90;99.90
10388;DHT22;5240;51.128;4.566;2022-12-07T04:52:41;3.90;99.90
10388;DHT22;5240;51.128;4.566;2022-12-07T04:55:08;3.80;99.90
10388;DHT22;5240;51.128;4.566;2022-12-07T04:57:35;3.80;99.90
10388;DHT22;5240;51.128;4.566;2022-12-07T05:00:03;3.80;99.90
10388;DHT22;5240;51.128;4.566;2022-12-07T05:02:30;3.80;99.90
10388;DHT22;5240;51.128;4.566;2022-12-07T05:04:57;3.80;99.90
10388;DHT22;5240;51.128;4.566;2022-12-07T05:07:24;3.90;99.90
10388;DHT22;5240;51.128;4.566;2022-12-07T05:09:52;3.90;99.90
10388;DHT22;5240;51.128;4.566;2022-12-07T05:12:19;3.90;99.90
10388;DHT22;5240;51.128;4.566;2022-12-07T05:14:46;3.90;99.90
10388;DHT22;5240;51.128;4.566;2022-12-07T05:17:13;3.80;99.90
10388;DHT22;5240;51.128;4.566;2022-12-07T05:19:40;3.80;99.90
10388;DHT22;5240;51.128;4.566;2022-12-07T05:22:07;3.80;99.90
10388;DHT22;5240;51.128;4.566;2022-12-07T05:24:35;3.70;99.90
10388;DHT22;5240;51.128;4.566;2022-12-07T05:27:03;3.70;99.90
10388;DHT22;5240;51.128;4.566;2022-12-07T05:29:30;3.70;99.90
10388;DHT22;5240;51.128;4.566;2022-12-07T05:31:57;3.80;99.90
10388;DHT22;5240;51.128;4.566;2022-12-07T05:34:25;3.80;99.90
10388;DHT22;5240;51.128;4.566;2022-12-07T05:36:52;3.90;99.90
10388;DHT22;5240;51.128;4.566;2022-12-07T05:39:19;3.90;99.90
10388;DHT22;5240;51.128;4.566;2022-12-07T05:41:46;4.00;99.90
10388;DHT22;5240;51.128;4.566;2022-12-07T05:44:31;4.00;99.90
10388;DHT22;5240;51.128;4.566;2022-12-07T05:46:58;4.00;99.90
10388;DHT22;5240;51.128;4.566;2022-12-07T05:49:25;4.10;99.90
10388;DHT22;5240;51.128;4.566;2022-12-07T05:51:52;4.10;99.90
10388;DHT22;5240;51.128;4.566;2022-12-07T05:54:19;4.10;99.90
10388;DHT22;5240;51.128;4.566;2022-12-07T05:56:46;4.20;99.90
10388;DHT22;5240;51.128;4.566;2022-12-07T05:59:13;4.20;99.90
10388;DHT22;5240;51.128;4.566;2022-12-07T06:01:50;4.20;99.90
10388;DHT22;5240;51.128;4.566;2022-12-07T06:04:17;4.20;99.90
10388;DHT22;5240;51.128;4.566;2022-12-07T06:06:45;4.20;99.90
10388;DHT22;5240;51.128;4.566;2022-12-07T06:09:14;4.20;99.90
10388;DHT22;5240;51.128;4.566;2022-12-07T06:11:41;4.10;99.90
10388;DHT22;5240;51.128;4.566;2022-12-07T06:14:25;4.10;99.90
10388;DHT22;5240;51.128;4.566;2022-12-07T06:16:53;4.10;99.90
10388;DHT22;5240;51.128;4.566;2022-12-07T06:19:20;4.10;99.90
10388;DHT22;5240;51.128;4.566;2022-12-07T06:21:47;4.10;99.90
10388;DHT22;5240;51.128;4.566;2022-12-07T06:24:16;4.20;99.90
10388;DHT22;5240;51.128;4.566;2022-12-07T06:26:43;4.20;99.90
10388;DHT22;5240;51.128;4.566;2022-12-07T06:29:10;4.30;99.90
10388;DHT22;5240;51.128;4.566;2022-12-07T06:31:38;4.40;99.90
10388;DHT22;5240;51.128;4.566;2022-12-07T06:34:09;4.50;99.90
10388;DHT22;5240;51.128;4.566;2022-12-07T06:36:37;4.60;99.90
10388;DHT22;5240;51.128;4.566;2022-12-07T06:39:05;4.60;99.90
10388;DHT22;5240;51.128;4.566;2022-12-07T06:41:34;4.60;99.90
10388;DHT22;5240;51.128;4.566;2022-12-07T06:44:01;4.60;99.90
10388;DHT22;5240;51.128;4.566;2022-12-07T06:46:29;4.50;99.90
10388;DHT22;5240;51.128;4.566;2022-12-07T06:48:56;4.60;99.90
10388;DHT22;5240;51.128;4.566;2022-12-07T06:51:24;4.60;99.90
10388;DHT22;5240;51.128;4.566;2022-12-07T06:53:51;4.60;99.90
10388;DHT22;5240;51.128;4.566;2022-12-07T06:56:18;4.60;99.90
10388;DHT22;5240;51.128;4.566;2022-12-07T06:58:45;4.60;99.90
10388;DHT22;5240;51.128;4.566;2022-12-07T07:01:14;4.60;99.90
10388;DHT22;5240;51.128;4.566;2022-12-07T07:03:42;4.60;99.90
10388;DHT22;5240;51.128;4.566;2022-12-07T07:06:10;4.60;99.90
10388;DHT22;5240;51.128;4.566;2022-12-07T07:08:39;4.50;99.90
10388;DHT22;5240;51.128;4.566;2022-12-07T07:11:08;4.40;99.90
10388;DHT22;5240;51.128;4.566;2022-12-07T07:13:35;4.40;99.90
10388;DHT22;5240;51.128;4.566;2022-12-07T07:16:03;4.30;99.90
10388;DHT22;5240;51.128;4.566;2022-12-07T07:18:30;4.20;99.90
10388;DHT22;5240;51.128;4.566;2022-12-07T07:20:57;4.20;99.90
10388;DHT22;5240;51.128;4.566;2022-12-07T07:23:25;4.10;99.90
10388;DHT22;5240;51.128;4.566;2022-12-07T07:25:57;4.00;99.90
10388;DHT22;5240;51.128;4.566;2022-12-07T07:28:38;4.10;99.90
10388;DHT22;5240;51.128;4.566;2022-12-07T07:31:07;4.00;99.90
10388;DHT22;5240;51.128;4.566;2022-12-07T07:33:36;4.00;99.90
10388;DHT22;5240;51.128;4.566;2022-12-07T07:36:04;4.00;99.90
10388;DHT22;5240;51.128;4.566;2022-12-07T07:38:31;4.10;99.90
10388;DHT22;5240;51.128;4.566;2022-12-07T07:41:00;4.10;99.90
10388;DHT22;5240;51.128;4.566;2022-12-07T07:43:27;4.10;99.90
10388;DHT22;5240;51.128;4.566;2022-12-07T07:45:54;4.00;99.90
10388;DHT22;5240;51.128;4.566;2022-12-07T07:48:21;4.00;99.90
10388;DHT22;5240;51.128;4.566;2022-12-07T07:50:50;4.00;99.90
10388;DHT22;5240;51.128;4.566;2022-12-07T07:53:17;4.00;99.90
10388;DHT22;5240;51.128;4.566;2022-12-07T07:55:51;4.00;99.90
10388;DHT22;5240;51.128;4.566;2022-12-07T07:58:20;4.00;99.90
10388;DHT22;5240;51.128;4.566;2022-12-07T08:00:47;4.00;99.90
10388;DHT22;5240;51.128;4.566;2022-12-07T08:03:14;4.00;99.90
10388;DHT22;5240;51.128;4.566;2022-12-07T08:05:41;4.00;99.90
10388;DHT22;5240;51.128;4.566;2022-12-07T08:08:09;4.00;99.90
10388;DHT22;5240;51.128;4.566;2022-12-07T08:10:36;4.00;99.90
10388;DHT22;5240;51.128;4.566;2022-12-07T08:13:03;4.10;99.90
10388;DHT22;5240;51.128;4.566;2022-12-07T08:15:42;4.20;99.90
10388;DHT22;5240;51.128;4.566;2022-12-07T08:18:10;4.30;99.90
10388;DHT22;5240;51.128;4.566;2022-12-07T08:20:39;4.30;99.90
10388;DHT22;5240;51.128;4.566;2022-12-07T08:23:07;4.30;99.90
10388;DHT22;5240;51.128;4.566;2022-12-07T08:25:36;4.30;99.90
10388;DHT22;5240;51.128;4.566;2022-12-07T08:28:03;4.30;99.90
10388;DHT22;5240;51.128;4.566;2022-12-07T08:30:31;4.40;99.90
10388;DHT22;5240;51.128;4.566;2022-12-07T08:33:01;4.50;99.90
10388;DHT22;5240;51.128;4.566;2022-12-07T08:35:29;4.60;99.90
10388;DHT22;5240;51.128;4.566;2022-12-07T08:37:56;4.70;99.90
10388;DHT22;5240;51.128;4.566;2022-12-07T08:40:24;4.80;99.90
10388;DHT22;5240;51.128;4.566;2022-12-07T08:42:51;4.90;99.90
10388;DHT22;5240;51.128;4.566;2022-12-07T08:45:19;4.90;99.90
10388;DHT22;5240;51.128;4.566;2022-12-07T08:47:50;5.00;99.90
10388;DHT22;5240;51.128;4.566;2022-12-07T08:50:21;5.10;99.90
10388;DHT22;5240;51.128;4.566;2022-12-07T08:52:52;5.30;99.90
10388;DHT22;5240;51.128;4.566;2022-12-07T08:55:21;5.40;99.90
10388;DHT22;5240;51.128;4.566;2022-12-07T08:57:49;5.40;99.90
10388;DHT22;5240;51.128;4.566;2022-12-07T09:00:18;5.40;99.90
10388;DHT22;5240;51.128;4.566;2022-12-07T09:02:46;5.30;99.90
10388;DHT22;5240;51.128;4.566;2022-12-07T09:05:13;5.30;99.90
10388;DHT22;5240;51.128;4.566;2022-12-07T09:07:48;5.30;99.90
10388;DHT22;5240;51.128;4.566;2022-12-07T09:10:16;5.30;99.90
10388;DHT22;5240;51.128;4.566;2022-12-07T09:12:45;5.20;99.90
10388;DHT22;5240;51.128;4.566;2022-12-07T09:15:12;5.20;99.90
10388;DHT22;5240;51.128;4.566;2022-12-07T09:17:39;5.20;99.90
10388;DHT22;5240;51.128;4.566;2022-12-07T09:20:07;5.30;99.90
10388;DHT22;5240;51.128;4.566;2022-12-07T09:22:34;5.30;99.90
10388;DHT22;5240;51.128;4.566;2022-12-07T09:25:03;5.30;99.90
10388;DHT22;5240;51.128;4.566;2022-12-07T09:27:31;5.60;99.90
10388;DHT22;5240;51.128;4.566;2022-12-07T09:29:58;5.90;99.90
10388;DHT22;5240;51.128;4.566;2022-12-07T09:32:25;6.00;99.90
10388;DHT22;5240;51.128;4.566;2022-12-07T09:34:52;6.10;99.90
10388;DHT22;5240;51.128;4.566;2022-12-07T09:37:19;6.70;99.90
10388;DHT22;5240;51.128;4.566;2022-12-07T09:39:49;7.00;99.90
10388;DHT22;5240;51.128;4.566;2022-12-07T09:42:34;7.00;99.90
10388;DHT22;5240;51.128;4.566;2022-12-07T09:45:06;6.80;99.90
10388;DHT22;5240;51.128;4.566;2022-12-07T09:47:34;6.70;99.90
10388;DHT22;5240;51.128;4.566;2022-12-07T09:50:05;6.70;99.90
10388;DHT22;5240;51.128;4.566;2022-12-07T09:52:33;6.50;99.90
10388;DHT22;5240;51.128;4.566;2022-12-07T09:55:01;6.40;99.90
10388;DHT22;5240;51.128;4.566;2022-12-07T09:57:32;6.30;99.90
10388;DHT22;5240;51.128;4.566;2022-12-07T10:00:06;6.30;99.90
10388;DHT22;5240;51.128;4.566;2022-12-07T10:02:36;6.40;99.90
10388;DHT22;5240;51.128;4.566;2022-12-07T10:05:05;6.50;99.90
10388;DHT22;5240;51.128;4.566;2022-12-07T10:07:33;6.70;99.90
10388;DHT22;5240;51.128;4.566;2022-12-07T10:10:03;6.80;99.90
10388;DHT22;5240;51.128;4.566;2022-12-07T10:12:30;6.70;99.90
10388;DHT22;5240;51.128;4.566;2022-12-07T10:15:02;6.70;99.90
10388;DHT22;5240;51.128;4.566;2022-12-07T10:17:35;6.70;99.90
10388;DHT22;5240;51.128;4.566;2022-12-07T10:20:18;6.80;99.90
10388;DHT22;5240;51.128;4.566;2022-12-07T10:23:00;6.90;99.90
10388;DHT22;5240;51.128;4.566;2022-12-07T10:25:32;6.90;99.90
10388;DHT22;5240;51.128;4.566;2022-12-07T10:28:12;6.80;99.90
10388;DHT22;5240;51.128;4.566;2022-12-07T10:30:51;6.80;99.90
10388;DHT22;5240;51.128;4.566;2022-12-07T10:33:34;7.00;99.90
10388;DHT22;5240;51.128;4.566;2022-12-07T10:36:17;7.00;99.90
10388;DHT22;5240;51.128;4.566;2022-12-07T10:38:46;7.10;99.90
10388;DHT22;5240;51.128;4.566;2022-12-07T10:41:14;7.10;99.90
10388;DHT22;5240;51.128;4.566;2022-12-07T10:43:50;7.20;99.90
10388;DHT22;5240;51.128;4.566;2022-12-07T10:46:43;7.30;99.90
10388;DHT22;5240;51.128;4.566;2022-12-07T10:49:31;7.30;99.90
10388;DHT22;5240;51.128;4.566;2022-12-07T10:52:09;7.40;99.90
10388;DHT22;5240;51.128;4.566;2022-12-07T10:54:46;7.40;99.90
10388;DHT22;5240;51.128;4.566;2022-12-07T10:57:36;7.50;99.90
10388;DHT22;5240;51.128;4.566;2022-12-07T11:00:16;7.50;99.90
10388;DHT22;5240;51.128;4.566;2022-12-07T11:19:04;7.50;99.90
10388;DHT22;5240;51.128;4.566;2022-12-07T11:21:41;6.80;99.90
10388;DHT22;5240;51.128;4.566;2022-12-07T11:24:12;6.80;99.90
10388;DHT22;5240;51.128;4.566;2022-12-07T11:26:55;6.90;99.90
10388;DHT22;5240;51.128;4.566;2022-12-07T11:29:38;7.00;99.90
10388;DHT22;5240;51.128;4.566;2022-12-07T11:32:15;7.10;99.90
10388;DHT22;5240;51.128;4.566;2022-12-07T11:34:55;7.10;99.90
10388;DHT22;5240;51.128;4.566;2022-12-07T11:37:28;7.20;99.90
10388;DHT22;5240;51.128;4.566;2022-12-07T11:40:00;7.30;99.90
10388;DHT22;5240;51.128;4.566;2022-12-07T11:42:31;7.50;99.90
10388;DHT22;5240;51.128;4.566;2022-12-07T11:45:03;7.50;99.90
10388;DHT22;5240;51.128;4.566;2022-12-07T11:47:43;7.50;99.90
10388;DHT22;5240;51.128;4.566;2022-12-07T11:50:23;7.60;99.90
10388;DHT22;5240;51.128;4.566;2022-12-07T11:52:55;7.60;99.90
10388;DHT22;5240;51.128;4.566;2022-12-07T11:55:31;7.60;99.90
10388;DHT22;5240;51.128;4.566;2022-12-07T11:58:04;7.70;99.90
10388;DHT22;5240;51.128;4.566;2022-12-07T12:00:32;7.60;99.90
10388;DHT22;5240;51.128;4.566;2022-12-07T12:03:03;7.60;99.90
10388;DHT22;5240;51.128;4.566;2022-12-07T12:05:32;7.60;99.90
10388;DHT22;5240;51.128;4.566;2022-12-07T12:08:04;7.70;99.90
10388;DHT22;5240;51.128;4.566;2022-12-07T12:10:47;7.80;99.90
10388;DHT22;5240;51.128;4.566;2022-12-07T12:13:29;7.80;99.90
10388;DHT22;5240;51.128;4.566;2022-12-07T12:16:10;7.70;99.90
10388;DHT22;5240;51.128;4.566;2022-12-07T12:18:56;7.80;99.90
10388;DHT22;5240;51.128;4.566;2022-12-07T12:21:30;7.80;99.90
10388;DHT22;5240;51.128;4.566;2022-12-07T12:24:00;7.80;99.90
10388;DHT22;5240;51.128;4.566;2022-12-07T12:26:31;7.70;99.90
10388;DHT22;5240;51.128;4.566;2022-12-07T12:29:01;7.70;99.90
10388;DHT22;5240;51.128;4.566;2022-12-07T12:31:33;7.70;99.90
10388;DHT22;5240;51.128;4.566;2022-12-07T12:34:04;7.70;99.90
10388;DHT22;5240;51.128;4.566;2022-12-07T12:36:51;7.70;99.90
10388;DHT22;5240;51.128;4.566;2022-12-07T12:39:19;7.70;99.90
10388;DHT22;5240;51.128;4.566;2022-12-07T12:41:54;7.70;99.90
10388;DHT22;5240;51.128;4.566;2022-12-07T12:44:43;7.60;99.90
10388;DHT22;5240;51.128;4.566;2022-12-07T12:50:29;7.20;99.90
10388;DHT22;5240;51.128;4.566;2022-12-07T12:53:16;7.10;99.90
10388;DHT22;5240;51.128;4.566;2022-12-07T12:56:16;6.90;99.90
10388;DHT22;5240;51.128;4.566;2022-12-07T12:58:48;6.80;99.90
10388;DHT22;5240;51.128;4.566;2022-12-07T13:01:39;6.70;99.90
10388;DHT22;5240;51.128;4.566;2022-12-07T13:04:48;6.70;99.90
10388;DHT22;5240;51.128;4.566;2022-12-07T13:07:49;6.70;99.90
10388;DHT22;5240;51.128;4.566;2022-12-07T13:10:38;6.60;99.90
10388;DHT22;5240;51.128;4.566;2022-12-07T13:13:31;6.70;99.90
10388;DHT22;5240;51.128;4.566;2022-12-07T13:16:38;6.80;99.90
10388;DHT22;5240;51.128;4.566;2022-12-07T13:22:46;7.20;99.90
10388;DHT22;5240;51.128;4.566;2022-12-07T13:25:21;7.40;99.90
10388;DHT22;5240;51.128;4.566;2022-12-07T13:27:54;7.60;99.90
10388;DHT22;5240;51.128;4.566;2022-12-07T13:30:24;7.60;99.90
10388;DHT22;5240;51.128;4.566;2022-12-07T13:32:55;7.50;99.90
10388;DHT22;5240;51.128;4.566;2022-12-07T13:35:34;7.60;99.90
10388;DHT22;5240;51.128;4.566;2022-12-07T13:38:13;7.70;99.90
10388;DHT22;5240;51.128;4.566;2022-12-07T13:40:42;7.60;99.90
10388;DHT22;5240;51.128;4.566;2022-12-07T13:43:13;7.50;99.90
10388;DHT22;5240;51.128;4.566;2022-12-07T13:45:42;7.50;99.90
10388;DHT22;5240;51.128;4.566;2022-12-07T13:48:20;7.40;99.90
10388;DHT22;5240;51.128;4.566;2022-12-07T13:50:53;7.30;99.90
10388;DHT22;5240;51.128;4.566;2022-12-07T13:53:21;7.20;99.90
10388;DHT22;5240;51.128;4.566;2022-12-07T13:55:49;7.10;99.90
10388;DHT22;5240;51.128;4.566;2022-12-07T13:58:16;6.80;99.90
10388;DHT22;5240;51.128;4.566;2022-12-07T14:00:45;6.70;99.90
10388;DHT22;5240;51.128;4.566;2022-12-07T14:03:30;6.60;99.90
10388;DHT22;5240;51.128;4.566;2022-12-07T14:06:07;6.50;99.90
10388;DHT22;5240;51.128;4.566;2022-12-07T14:08:38;6.50;99.90
10388;DHT22;5240;51.128;4.566;2022-12-07T14:11:12;6.50;99.90
10388;DHT22;5240;51.128;4.566;2022-12-07T14:13:45;6.50;99.90
10388;DHT22;5240;51.128;4.566;2022-12-07T14:16:25;6.60;99.90
10388;DHT22;5240;51.128;4.566;2022-12-07T14:18:54;6.50;99.90
10388;DHT22;5240;51.128;4.566;2022-12-07T14:21:23;6.40;99.90
10388;DHT22;5240;51.128;4.566;2022-12-07T14:24:12;6.30;99.90
10388;DHT22;5240;51.128;4.566;2022-12-07T14:26:40;6.20;99.90
10388;DHT22;5240;51.128;4.566;2022-12-07T14:29:30;6.20;99.90
10388;DHT22;5240;51.128;4.566;2022-12-07T14:32:18;6.10;99.90
10388;DHT22;5240;51.128;4.566;2022-12-07T14:35:00;6.00;99.90
10388;DHT22;5240;51.128;4.566;2022-12-07T14:37:28;5.90;99.90
10388;DHT22;5240;51.128;4.566;2022-12-07T14:39:55;6.00;99.90
10388;DHT22;5240;51.128;4.566;2022-12-07T14:42:26;6.00;99.90
10388;DHT22;5240;51.128;4.566;2022-12-07T14:44:54;6.00;99.90
10388;DHT22;5240;51.128;4.566;2022-12-07T14:47:22;6.00;99.90
10388;DHT22;5240;51.128;4.566;2022-12-07T14:49:49;6.00;99.90
10388;DHT22;5240;51.128;4.566;2022-12-07T14:52:18;6.00;99.90
10388;DHT22;5240;51.128;4.566;2022-12-07T14:54:46;6.00;99.90
10388;DHT22;5240;51.128;4.566;2022-12-07T14:57:13;6.00;99.90
10388;DHT22;5240;51.128;4.566;2022-12-07T14:59:40;5.90;99.90
10388;DHT22;5240;51.128;4.566;2022-12-07T15:02:10;5.80;99.90
10388;DHT22;5240;51.128;4.566;2022-12-07T15:04:39;5.80;99.90
10388;DHT22;5240;51.128;4.566;2022-12-07T15:07:10;5.80;99.90
10388;DHT22;5240;51.128;4.566;2022-12-07T15:09:39;5.70;99.90
10388;DHT22;5240;51.128;4.566;2022-12-07T15:12:06;5.70;99.90
10388;DHT22;5240;51.128;4.566;2022-12-07T15:14:33;5.60;99.90
10388;DHT22;5240;51.128;4.566;2022-12-07T15:17:00;5.50;99.90
10388;DHT22;5240;51.128;4.566;2022-12-07T15:19:27;5.40;99.90
10388;DHT22;5240;51.128;4.566;2022-12-07T15:21:56;5.50;99.90
10388;DHT22;5240;51.128;4.566;2022-12-07T15:24:24;5.40;99.90
10388;DHT22;5240;51.128;4.566;2022-12-07T15:26:51;5.40;99.90
10388;DHT22;5240;51.128;4.566;2022-12-07T15:29:18;5.40;99.90
10388;DHT22;5240;51.128;4.566;2022-12-07T15:31:45;5.30;99.90
10388;DHT22;5240;51.128;4.566;2022-12-07T15:34:12;5.30;99.90
10388;DHT22;5240;51.128;4.566;2022-12-07T15:36:39;5.20;99.90
10388;DHT22;5240;51.128;4.566;2022-12-07T15:39:08;5.20;99.90
10388;DHT22;5240;51.128;4.566;2022-12-07T15:41:35;5.20;99.90
10388;DHT22;5240;51.128;4.566;2022-12-07T15:44:02;5.20;99.90
10388;DHT22;5240;51.128;4.566;2022-12-07T15:46:46;5.20;99.90
10388;DHT22;5240;51.128;4.566;2022-12-07T15:49:14;5.20;99.90
10388;DHT22;5240;51.128;4.566;2022-12-07T15:51:42;5.20;99.90
10388;DHT22;5240;51.128;4.566;2022-12-07T15:54:17;5.30;99.90
10388;DHT22;5240;51.128;4.566;2022-12-07T15:56:45;5.30;99.90
10388;DHT22;5240;51.128;4.566;2022-12-07T15:59:12;5.40;99.90
10388;DHT22;5240;51.128;4.566;2022-12-07T16:01:39;5.40;99.90
10388;DHT22;5240;51.128;4.566;2022-12-07T16:04:06;5.50;99.90
10388;DHT22;5240;51.128;4.566;2022-12-07T16:06:33;5.50;99.90
10388;DHT22;5240;51.128;4.566;2022-12-07T16:09:00;5.50;99.90
10388;DHT22;5240;51.128;4.566;2022-12-07T16:11:29;5.60;99.90
10388;DHT22;5240;51.128;4.566;2022-12-07T16:13:56;5.60;99.90
10388;DHT22;5240;51.128;4.566;2022-12-07T16:16:23;5.60;99.90
10388;DHT22;5240;51.128;4.566;2022-12-07T16:18:51;5.60;99.90
10388;DHT22;5240;51.128;4.566;2022-12-07T16:21:19;5.60;99.90
10388;DHT22;5240;51.128;4.566;2022-12-07T16:23:46;5.70;99.90
10388;DHT22;5240;51.128;4.566;2022-12-07T16:26:15;5.70;99.90
10388;DHT22;5240;51.128;4.566;2022-12-07T16:28:44;5.70;99.90
10388;DHT22;5240;51.128;4.566;2022-12-07T16:31:13;5.70;99.90
10388;DHT22;5240;51.128;4.566;2022-12-07T16:33:42;5.70;99.90
10388;DHT22;5240;51.128;4.566;2022-12-07T16:36:10;5.80;99.90
10388;DHT22;5240;51.128;4.566;2022-12-07T16:38:38;5.80;99.90
10388;DHT22;5240;51.128;4.566;2022-12-07T16:41:06;5.80;99.90
10388;DHT22;5240;51.128;4.566;2022-12-07T16:43:33;5.70;99.90
10388;DHT22;5240;51.128;4.566;2022-12-07T16:46:02;5.70;99.90
10388;DHT22;5240;51.128;4.566;2022-12-07T16:48:30;5.70;99.90
10388;DHT22;5240;51.128;4.566;2022-12-07T16:50:57;5.70;99.90
10388;DHT22;5240;51.128;4.566;2022-12-07T16:53:29;5.70;99.90